This is the latest recevied weather packets stored in our database for station/object OE6JVE-13. If no packets are shown the sender has not sent any weather packets the latest 10 day(s).
| Time | Temp. | Humidity | Pressure | Rain* | Wind** | Luminosity | Snow |
|---|---|---|---|---|---|---|---|
| 1788270047 | 28.33° C | 37% | 1011.1 hPa | 0 mm | - | - | - |
| 1788269455 | 27.78° C | 38% | 1011.1 hPa | 0 mm | - | - | - |
| 1788268863 | 27.78° C | 37% | 1011.2 hPa | 0 mm | - | - | - |
| 1788268271 | 26.67° C | 41% | 1011.4 hPa | 0 mm | - | - | - |
| 1788267679 | 27.78° C | 39% | 1011.4 hPa | 0 mm | - | - | - |
| 1788267021 | 27.22° C | 44% | 1011.4 hPa | 0 mm | - | - | - |
| 1788266428 | 26.11° C | 47% | 1011.6 hPa | 0 mm | - | - | - |
| 1788265837 | 26.67° C | 43% | 1011.5 hPa | 0 mm | - | - | - |
| 1788265244 | 28.33° C | 36% | 1011.4 hPa | 0 mm | - | - | - |
| 1788264652 | 27.78° C | 38% | 1011.5 hPa | 0 mm | - | - | - |
| 1788264060 | 27.78° C | 38% | 1011.6 hPa | 0 mm | - | - | - |
| 1788263468 | 27.78° C | 38% | 1011.6 hPa | 0 mm | - | - | - |
| 1788262876 | 27.22° C | 38% | 1011.8 hPa | 0 mm | - | - | - |
| 1788262220 | 27.22° C | 40% | 1012 hPa | 0 mm | - | - | - |
| 1788261626 | 27.22° C | 39% | 1012.1 hPa | 0 mm | - | - | - |
| 1788261034 | 27.22° C | 42% | 1012.2 hPa | 0 mm | - | - | - |
| 1788260465 | 26.67° C | 43% | 1012.4 hPa | 0 mm | - | - | - |
| 1788259850 | 26.67° C | 43% | 1012.6 hPa | 0 mm | - | - | - |
| 1788259257 | 26.67° C | 42% | 1012.6 hPa | 0 mm | - | - | - |
| 1788258665 | 26.67° C | 47% | 1012.7 hPa | 0 mm | - | - | - |
| 1788258073 | 26.11° C | 48% | 1012.8 hPa | 0 mm | - | - | - |
| 1788257415 | 25.56° C | 48% | 1013 hPa | 0 mm | - | - | - |
| 1788256823 | 25.56° C | 51% | 1013 hPa | 0 mm | - | - | - |
| 1788256231 | 24.44° C | 66% | 1013.2 hPa | 0 mm | - | - | - |
| 1788255639 | 24.44° C | 65% | 1013.4 hPa | 0 mm | - | - | - |
* Rain latest hour (hover to see other rain measurements)
** Current wind speed in m/s (hover to see current wind gust speed)